Terminal Aerodrome Forecast
Issued by NWS

Home | Current Version | Previous Version | Text Only | Print | Product List | Glossary On
Versions: 1 2 3 4 5 6 7 8 9 10 11 12 13 14 15
000
FTUS43 KFGF 211138
TAFTVF
TAF
KTVF 211138Z 2112/2212 14004KT P6SM BKN120
     FM211700 22005KT P6SM VCSH BKN140
     FM220200 33005KT P6SM FEW150=

USA.gov is the U.S. government's official web portal to all federal, state and local government web resources and services.